San Benjamino — HBLW — position and weather

sailwx.info

Track history (hours):
 
Tides and Currents Weather Stations Pressure Air Temp Water Temp Dewpoint Dewpoint Depression Visibility Wind Speed Wind Dir Waves Ship Positions

San Benjamino

Last reported at 2018-Mar-30 10:07 UTC. Time now 2018-May-25 11:09 UTC.
Position N 28°30' W 013°10'.
Warning: this ship's position is 56 days out of date.

Length 190 m; draft 9.7 m.

Type: Cargo ship. MMSI: 269095000.

Date/timePositionNaut miles runAvg speedWind from/ knotsBaromVisibWave heightAir tempDewpointWater temp
2018-Mar-30 10:07N 28°30' W 013°10'613.0
2018-Mar-30 09:38N 28°36' W 013°07'512.9
2018-Mar-30 09:13N 28°41' W 013°04'1213.1
2018-Mar-30 08:17N 28°52' W 012°57'513.4
2018-Mar-30 07:55N 28°56' W 012°55'56213.2
2018-Mar-28 13:24N 35°57' W 005°34'411.3
2018-Mar-28 13:00N 35°59' W 005°29'510.2
2018-Mar-28 12:30N 36°01' W 005°23'4 8.2
2018-Mar-28 12:00N 36°05' W 005°23'3 1.7
2018-Mar-28 10:28N 36°08' W 005°22'0 0.1
2018-Mar-28 09:58N 36°08' W 005°22'0 0.0
2018-Mar-28 09:28N 36°07' W 005°22'0 0.0
2018-Mar-28 08:58N 36°07' W 005°22'0 0.0
2018-Mar-28 06:46N 36°08' W 005°22'0 0.0
2018-Mar-28 06:28N 36°08' W 005°22'0 0.0
2018-Mar-28 05:52N 36°08' W 005°22'0 0.1
2018-Mar-28 05:28N 36°08' W 005°22'0 0.1
2018-Mar-28 04:58N 36°08' W 005°22'0 0.1
2018-Mar-28 04:28N 36°08' W 005°22'0 0.1
2018-Mar-28 03:58N 36°08' W 005°22'0 0.0
2018-Mar-28 03:28N 36°08' W 005°22'0 0.1
2018-Mar-28 02:58N 36°08' W 005°22'0 0.0
2018-Mar-28 02:28N 36°08' W 005°22'1 2.2
2018-Mar-28 02:00N 36°07' W 005°22'3 5.2
2018-Mar-28 01:30N 36°06' W 005°19'3 6.5
2018-Mar-28 01:00N 36°06' W 005°15'1 1.3
2018-Mar-28 00:30N 36°06' W 005°14'0 0.2
2018-Mar-28 00:00N 36°05' W 005°14'8 2.1
2018-Mar-27 20:14N 36°08' W 005°04'0 1.5
2018-Mar-27 20:00N 36°08' W 005°05'0 0.8
2018-Mar-27 19:30N 36°08' W 005°05'2 3.5
2018-Mar-27 18:52N 36°09' W 005°03'2 0.6
2018-Mar-27 15:32N 36°08' W 005°05'0 1.4
2018-Mar-27 15:30N 36°08' W 005°05'  
2018-Mar-24 07:17N 35°41' E 013°54'310.6
2018-Mar-24 07:01N 35°39' E 013°56'611.5
2018-Mar-24 06:30N 35°34' E 014°01'  
2018-Mar-21 05:44N 32°27' E 029°47'313.7
2018-Mar-21 05:30N 32°25' E 029°50'713.9
2018-Mar-21 05:00N 32°23' E 029°58'2013.9
2018-Mar-21 03:33N 32°16' E 030°20'114.2
2018-Mar-21 03:30N 32°16' E 030°21'7813.2
2018-Mar-20 21:37N 31°53' E 031°49'1913.3
2018-Mar-20 20:13N 31°42' E 032°06'313.8
2018-Mar-20 20:00N 31°39' E 032°08'813.7
2018-Mar-20 19:26N 31°34' E 032°15'  
Track history (hours):
 
Tides and Currents Weather Stations Pressure Air Temp Water Temp Dewpoint Dewpoint Depression Visibility Wind Speed Wind Dir Waves Ship Positions

San Benjamino

Last reported at 2018-Mar-30 10:07 UTC. Time now 2018-May-25 11:09 UTC.
Position N 28°30' W 013°10'.
Warning: this ship's position is 56 days out of date.

Length 190 m; draft 9.7 m.

Type: Cargo ship. MMSI: 269095000.

Date/timePositionNaut miles runAvg speedWind from/ knotsBaromVisibWave heightAir tempDewpointWater temp
2018-Mar-30 10:07N 28°30' W 013°10'613.0
2018-Mar-30 09:38N 28°36' W 013°07'512.9
2018-Mar-30 09:13N 28°41' W 013°04'1213.1
2018-Mar-30 08:17N 28°52' W 012°57'513.4
2018-Mar-30 07:55N 28°56' W 012°55'56213.2
2018-Mar-28 13:24N 35°57' W 005°34'411.3
2018-Mar-28 13:00N 35°59' W 005°29'510.2
2018-Mar-28 12:30N 36°01' W 005°23'4 8.2
2018-Mar-28 12:00N 36°05' W 005°23'3 1.7
2018-Mar-28 10:28N 36°08' W 005°22'0 0.1
2018-Mar-28 09:58N 36°08' W 005°22'0 0.0
2018-Mar-28 09:28N 36°07' W 005°22'0 0.0
2018-Mar-28 08:58N 36°07' W 005°22'0 0.0
2018-Mar-28 06:46N 36°08' W 005°22'0 0.0
2018-Mar-28 06:28N 36°08' W 005°22'0 0.0
2018-Mar-28 05:52N 36°08' W 005°22'0 0.1
2018-Mar-28 05:28N 36°08' W 005°22'0 0.1
2018-Mar-28 04:58N 36°08' W 005°22'0 0.1
2018-Mar-28 04:28N 36°08' W 005°22'0 0.1
2018-Mar-28 03:58N 36°08' W 005°22'0 0.0
2018-Mar-28 03:28N 36°08' W 005°22'0 0.1
2018-Mar-28 02:58N 36°08' W 005°22'0 0.0
2018-Mar-28 02:28N 36°08' W 005°22'1 2.2
2018-Mar-28 02:00N 36°07' W 005°22'3 5.2
2018-Mar-28 01:30N 36°06' W 005°19'3 6.5
2018-Mar-28 01:00N 36°06' W 005°15'1 1.3
2018-Mar-28 00:30N 36°06' W 005°14'0 0.2
2018-Mar-28 00:00N 36°05' W 005°14'8 2.1
2018-Mar-27 20:14N 36°08' W 005°04'0 1.5
2018-Mar-27 20:00N 36°08' W 005°05'0 0.8
2018-Mar-27 19:30N 36°08' W 005°05'2 3.5
2018-Mar-27 18:52N 36°09' W 005°03'2 0.6
2018-Mar-27 15:32N 36°08' W 005°05'0 1.4
2018-Mar-27 15:30N 36°08' W 005°05'  
2018-Mar-24 07:17N 35°41' E 013°54'310.6
2018-Mar-24 07:01N 35°39' E 013°56'611.5
2018-Mar-24 06:30N 35°34' E 014°01'  
2018-Mar-21 05:44N 32°27' E 029°47'313.7
2018-Mar-21 05:30N 32°25' E 029°50'713.9
2018-Mar-21 05:00N 32°23' E 029°58'2013.9
2018-Mar-21 03:33N 32°16' E 030°20'114.2
2018-Mar-21 03:30N 32°16' E 030°21'7813.2
2018-Mar-20 21:37N 31°53' E 031°49'1913.3
2018-Mar-20 20:13N 31°42' E 032°06'313.8
2018-Mar-20 20:00N 31°39' E 032°08'813.7
2018-Mar-20 19:26N 31°34' E 032°15'  

Dump ship's entire track history